createdAt,value
2023-01-12T00:00:56.251Z,0
2023-01-12T00:01:56.277Z,0
2023-01-12T00:02:56.259Z,0
2023-01-12T00:03:56.269Z,0
2023-01-12T00:04:56.250Z,0
2023-01-12T00:05:56.247Z,0
2023-01-12T00:06:56.258Z,0
2023-01-12T00:07:56.269Z,0
2023-01-12T00:08:56.246Z,0
2023-01-12T00:09:56.269Z,0
2023-01-12T00:10:56.259Z,0
2023-01-12T00:11:56.249Z,0
2023-01-12T00:12:56.264Z,0
2023-01-12T00:13:56.249Z,0
2023-01-12T00:14:56.252Z,0
2023-01-12T00:15:56.326Z,0
2023-01-12T00:16:56.244Z,0
2023-01-12T00:17:56.258Z,0
2023-01-12T00:18:56.250Z,0
2023-01-12T00:19:56.262Z,0
2023-01-12T00:20:56.255Z,0
2023-01-12T00:21:56.300Z,0
2023-01-12T00:22:56.262Z,0
2023-01-12T00:23:56.253Z,0
2023-01-12T00:24:56.259Z,0
2023-01-12T00:25:56.244Z,0
2023-01-12T00:26:56.255Z,0
2023-01-12T00:27:56.271Z,0
2023-01-12T00:28:56.256Z,0
2023-01-12T00:29:56.253Z,0
2023-01-12T00:30:56.260Z,0
2023-01-12T00:31:56.256Z,0
2023-01-12T00:32:56.270Z,0
2023-01-12T00:33:56.245Z,0
2023-01-12T00:34:56.249Z,0
2023-01-12T00:35:56.290Z,0
2023-01-12T00:36:56.271Z,0
2023-01-12T00:37:56.263Z,0
2023-01-12T00:38:56.270Z,0
2023-01-12T00:40:02.515Z,0
2023-01-12T00:40:56.250Z,0
2023-01-12T00:41:56.340Z,0
2023-01-12T00:42:56.260Z,0
2023-01-12T00:43:56.254Z,0
2023-01-12T00:44:56.247Z,0
2023-01-12T00:45:56.316Z,0
2023-01-12T00:46:56.255Z,0
2023-01-12T00:47:56.366Z,0
2023-01-12T00:48:56.255Z,0
2023-01-12T00:49:56.249Z,0
2023-01-12T00:50:56.247Z,0
2023-01-12T00:51:56.245Z,0
2023-01-12T00:52:56.255Z,0
2023-01-12T00:53:56.253Z,0
2023-01-12T00:54:56.250Z,0
2023-01-12T00:55:56.255Z,0
2023-01-12T00:56:56.249Z,0
2023-01-12T00:57:56.256Z,0
2023-01-12T00:58:56.244Z,0
2023-01-12T00:59:56.255Z,0
2023-01-12T01:00:56.277Z,0
2023-01-12T01:01:56.372Z,0
2023-01-12T01:02:56.287Z,0
2023-01-12T01:03:56.252Z,0
2023-01-12T01:04:56.356Z,0
2023-01-12T01:05:56.241Z,0
2023-01-12T01:06:56.241Z,0
2023-01-12T01:07:56.264Z,0
2023-01-12T01:08:56.245Z,0
2023-01-12T01:09:56.245Z,0
2023-01-12T01:10:56.250Z,0
2023-01-12T01:11:56.243Z,0
2023-01-12T01:12:56.264Z,0
2023-01-12T01:13:56.242Z,0
2023-01-12T01:14:56.253Z,0
2023-01-12T01:15:56.286Z,0
2023-01-12T01:16:56.248Z,0
2023-01-12T01:17:56.260Z,0
2023-01-12T01:18:56.339Z,0
2023-01-12T01:19:56.253Z,0
2023-01-12T01:20:56.260Z,0
2023-01-12T01:21:56.253Z,0
2023-01-12T01:22:56.268Z,0
2023-01-12T01:23:56.247Z,0
2023-01-12T01:24:56.368Z,0
2023-01-12T01:25:56.256Z,0
2023-01-12T01:26:56.266Z,0
2023-01-12T01:27:56.314Z,0
2023-01-12T01:28:56.250Z,0
2023-01-12T01:29:56.264Z,0
2023-01-12T01:30:56.289Z,0
2023-01-12T01:31:56.265Z,0
2023-01-12T01:32:56.262Z,0
2023-01-12T01:33:56.257Z,0
2023-01-12T01:34:56.259Z,0
2023-01-12T01:35:56.246Z,0
2023-01-12T01:36:56.263Z,0
2023-01-12T01:37:56.272Z,0
2023-01-12T01:38:56.257Z,0
2023-01-12T01:39:56.271Z,0
2023-01-12T01:40:56.257Z,0
2023-01-12T01:41:56.266Z,0
2023-01-12T01:42:56.270Z,0
2023-01-12T01:43:56.253Z,0
2023-01-12T01:44:56.246Z,0
2023-01-12T01:45:56.251Z,0
2023-01-12T01:46:56.257Z,0
2023-01-12T01:47:56.264Z,0
2023-01-12T01:48:56.247Z,0
2023-01-12T01:49:56.249Z,0
2023-01-12T01:50:56.241Z,0
2023-01-12T01:51:56.254Z,0
2023-01-12T01:52:56.281Z,0
2023-01-12T01:53:56.255Z,0
2023-01-12T01:54:56.256Z,0
2023-01-12T01:55:56.258Z,0
2023-01-12T01:56:56.274Z,0
2023-01-12T01:57:56.268Z,0
2023-01-12T01:58:56.258Z,0
2023-01-12T01:59:56.257Z,0
2023-01-12T02:00:56.288Z,0
2023-01-12T02:01:56.375Z,0
2023-01-12T02:02:56.363Z,0
2023-01-12T02:03:56.255Z,0
2023-01-12T02:04:56.245Z,0
2023-01-12T02:05:56.236Z,0
2023-01-12T02:06:56.244Z,0
2023-01-12T02:07:56.437Z,0
2023-01-12T02:08:56.240Z,0
2023-01-12T02:09:56.239Z,0
2023-01-12T02:10:56.237Z,0
2023-01-12T02:11:56.238Z,0
2023-01-12T02:12:56.266Z,0
2023-01-12T02:13:56.252Z,0
2023-01-12T02:14:56.247Z,0
2023-01-12T02:15:56.326Z,0
2023-01-12T02:16:56.249Z,0
2023-01-12T02:17:56.252Z,0
2023-01-12T02:18:56.240Z,0
2023-01-12T02:19:56.298Z,0
2023-01-12T02:20:56.254Z,0
2023-01-12T02:21:56.243Z,0
2023-01-12T02:22:56.254Z,0
2023-01-12T02:23:56.241Z,0
2023-01-12T02:24:56.257Z,0
2023-01-12T02:25:56.332Z,0
2023-01-12T02:26:56.238Z,0
2023-01-12T02:27:56.262Z,0
2023-01-12T02:28:56.251Z,0
2023-01-12T02:29:56.261Z,0
2023-01-12T02:30:56.279Z,0
2023-01-12T02:31:56.244Z,0
2023-01-12T02:32:56.263Z,0
2023-01-12T02:33:56.249Z,0
2023-01-12T02:34:56.244Z,0
2023-01-12T02:35:56.249Z,0
2023-01-12T02:36:56.240Z,0
2023-01-12T02:37:56.260Z,0
2023-01-12T02:38:56.251Z,0
2023-01-12T02:39:56.248Z,0
2023-01-12T02:40:56.253Z,0
2023-01-12T02:41:56.250Z,0
2023-01-12T02:42:56.268Z,0
2023-01-12T02:43:56.242Z,0
2023-01-12T02:44:56.296Z,0
2023-01-12T02:45:56.252Z,0
2023-01-12T02:46:56.247Z,0
2023-01-12T02:47:56.285Z,0
2023-01-12T02:48:56.247Z,0
2023-01-12T02:49:56.250Z,0
2023-01-12T02:50:56.245Z,0
2023-01-12T02:51:56.257Z,0
2023-01-12T02:52:56.264Z,0
2023-01-12T02:53:56.236Z,0
2023-01-12T02:54:56.259Z,0
2023-01-12T02:55:56.243Z,0
2023-01-12T02:56:56.255Z,0
2023-01-12T02:57:56.264Z,0
2023-01-12T02:58:56.241Z,0
2023-01-12T02:59:56.252Z,0
2023-01-12T03:00:56.336Z,0
2023-01-12T03:01:56.242Z,0
2023-01-12T03:02:56.318Z,0
2023-01-12T03:03:56.337Z,0
2023-01-12T03:04:56.249Z,0
2023-01-12T03:05:56.234Z,0
2023-01-12T03:06:56.251Z,0
2023-01-12T03:07:56.267Z,0
2023-01-12T03:08:56.241Z,0
2023-01-12T03:09:56.243Z,0
2023-01-12T03:10:56.251Z,0
2023-01-12T03:11:56.237Z,0
2023-01-12T03:12:56.261Z,0
2023-01-12T03:13:56.244Z,0
2023-01-12T03:14:56.239Z,0
2023-01-12T03:15:56.249Z,0
2023-01-12T03:16:56.240Z,0
2023-01-12T03:17:56.274Z,0
2023-01-12T03:18:56.250Z,0
2023-01-12T03:19:56.249Z,0
2023-01-12T03:20:56.240Z,0
2023-01-12T03:21:56.241Z,0
2023-01-12T03:22:56.253Z,0
2023-01-12T03:23:56.238Z,0
2023-01-12T03:24:56.242Z,0
2023-01-12T03:25:56.249Z,0
2023-01-12T03:26:56.244Z,0
2023-01-12T03:27:56.386Z,0
2023-01-12T03:28:56.235Z,0
2023-01-12T03:29:56.251Z,0
2023-01-12T03:30:56.249Z,0
2023-01-12T03:31:56.259Z,0
2023-01-12T03:32:56.260Z,0
2023-01-12T03:33:56.242Z,0
2023-01-12T03:34:56.250Z,0
2023-01-12T03:35:56.246Z,0
2023-01-12T03:36:56.256Z,0
2023-01-12T03:37:56.262Z,0
2023-01-12T03:38:56.247Z,0
2023-01-12T03:39:56.242Z,0
2023-01-12T03:40:56.245Z,0
2023-01-12T03:41:56.269Z,0
2023-01-12T03:42:56.262Z,0
2023-01-12T03:43:56.248Z,0
2023-01-12T03:44:56.249Z,0
2023-01-12T03:45:56.249Z,0
2023-01-12T03:46:56.273Z,0
2023-01-12T03:47:56.257Z,0
2023-01-12T03:48:56.241Z,0
2023-01-12T03:49:56.246Z,0
2023-01-12T03:50:56.354Z,0
2023-01-12T03:51:56.258Z,0
2023-01-12T03:52:56.257Z,0
2023-01-12T03:53:56.245Z,0
2023-01-12T03:54:56.239Z,0
2023-01-12T03:55:56.247Z,0
2023-01-12T03:56:56.255Z,0
2023-01-12T03:57:56.266Z,0
2023-01-12T03:58:56.253Z,0
2023-01-12T03:59:56.268Z,0
2023-01-12T04:00:56.331Z,0
2023-01-12T04:01:56.433Z,0
2023-01-12T04:02:56.296Z,0
2023-01-12T04:03:56.240Z,0
2023-01-12T04:04:56.248Z,0
2023-01-12T04:05:56.265Z,0
2023-01-12T04:06:56.250Z,0
2023-01-12T04:07:56.253Z,0
2023-01-12T04:08:56.268Z,0
2023-01-12T04:09:56.248Z,0
2023-01-12T04:10:56.239Z,0
2023-01-12T04:11:56.263Z,0
2023-01-12T04:12:56.268Z,0
2023-01-12T04:13:56.235Z,0
2023-01-12T04:14:56.248Z,0
2023-01-12T04:15:56.259Z,0
2023-01-12T04:16:56.255Z,0
2023-01-12T04:17:56.319Z,0
2023-01-12T04:18:56.241Z,0
2023-01-12T04:19:56.271Z,0
2023-01-12T04:20:56.241Z,0
2023-01-12T04:21:56.242Z,0
2023-01-12T04:22:56.256Z,0
2023-01-12T04:23:56.237Z,0
2023-01-12T04:24:56.242Z,0
2023-01-12T04:25:56.268Z,0
2023-01-12T04:26:56.249Z,0
2023-01-12T04:27:56.292Z,0
2023-01-12T04:28:56.240Z,0
2023-01-12T04:29:56.250Z,0
2023-01-12T04:30:56.235Z,0
2023-01-12T04:31:56.284Z,0
2023-01-12T04:32:56.253Z,0
2023-01-12T04:33:56.252Z,0
2023-01-12T04:34:56.246Z,0
2023-01-12T04:35:56.240Z,0
2023-01-12T04:36:56.239Z,0
2023-01-12T04:37:56.258Z,0
2023-01-12T04:38:56.267Z,0
2023-01-12T04:39:56.260Z,0
2023-01-12T04:40:56.255Z,0
2023-01-12T04:41:56.268Z,0
2023-01-12T04:42:56.260Z,0
2023-01-12T04:43:56.252Z,0
2023-01-12T04:44:56.253Z,0
2023-01-12T04:45:56.330Z,0
2023-01-12T04:46:56.240Z,0
2023-01-12T04:47:56.259Z,0
2023-01-12T04:48:56.253Z,0
2023-01-12T04:49:56.242Z,0
2023-01-12T04:50:56.246Z,0
2023-01-12T04:51:56.245Z,0
2023-01-12T04:52:56.261Z,0
2023-01-12T04:53:56.258Z,0
2023-01-12T04:54:56.854Z,0
2023-01-12T04:55:56.249Z,0
2023-01-12T04:56:56.250Z,0
2023-01-12T04:57:56.275Z,0
2023-01-12T04:58:56.246Z,0
2023-01-12T04:59:56.250Z,0
2023-01-12T05:00:56.347Z,0
2023-01-12T05:01:56.308Z,0
2023-01-12T05:02:56.259Z,0
2023-01-12T05:03:56.399Z,0
2023-01-12T05:04:56.252Z,0
2023-01-12T05:05:56.256Z,0
2023-01-12T05:06:56.238Z,0
2023-01-12T05:07:56.263Z,0
2023-01-12T05:08:56.253Z,0
2023-01-12T05:09:56.242Z,0
2023-01-12T05:10:56.234Z,0
2023-01-12T05:11:56.247Z,0
2023-01-12T05:12:56.267Z,0
2023-01-12T05:13:56.260Z,0
2023-01-12T05:14:56.240Z,0
2023-01-12T05:15:56.247Z,0
2023-01-12T05:16:56.297Z,0
2023-01-12T05:17:56.263Z,0
2023-01-12T05:18:56.244Z,0
2023-01-12T05:19:56.252Z,0
2023-01-12T05:20:56.238Z,0
2023-01-12T05:21:56.249Z,0
2023-01-12T05:22:56.251Z,0
2023-01-12T05:23:56.235Z,0
2023-01-12T05:24:56.240Z,0
2023-01-12T05:25:56.238Z,0
2023-01-12T05:26:56.235Z,0
2023-01-12T05:27:56.263Z,0
2023-01-12T05:28:56.248Z,0
2023-01-12T05:29:56.243Z,0
2023-01-12T05:30:56.267Z,0
2023-01-12T05:31:56.242Z,0
2023-01-12T05:32:56.262Z,0
2023-01-12T05:33:56.237Z,0
2023-01-12T05:34:56.236Z,0
2023-01-12T05:35:56.242Z,0
2023-01-12T05:36:56.255Z,0
2023-01-12T05:37:56.272Z,0
2023-01-12T05:38:56.238Z,0
2023-01-12T05:39:56.246Z,0
2023-01-12T05:40:56.239Z,0
2023-01-12T05:41:56.249Z,0
2023-01-12T05:42:56.251Z,0
2023-01-12T05:43:56.239Z,0
2023-01-12T05:44:56.249Z,0
2023-01-12T05:45:56.280Z,0
2023-01-12T05:46:56.254Z,0
2023-01-12T05:47:56.259Z,0
2023-01-12T05:48:56.253Z,0
2023-01-12T05:49:56.258Z,0
2023-01-12T05:50:56.246Z,0
2023-01-12T05:51:56.254Z,0
2023-01-12T05:52:56.266Z,0
2023-01-12T05:53:56.252Z,0
2023-01-12T05:54:56.245Z,0
2023-01-12T05:55:56.254Z,0
2023-01-12T05:56:56.248Z,0
2023-01-12T05:57:56.271Z,0
2023-01-12T05:58:56.243Z,0
2023-01-12T05:59:56.243Z,0
2023-01-12T06:00:56.260Z,0
2023-01-12T06:01:56.292Z,0
2023-01-12T06:02:56.257Z,0
2023-01-12T06:03:56.262Z,0
2023-01-12T06:04:56.304Z,0
2023-01-12T06:05:56.241Z,0
2023-01-12T06:06:56.253Z,0
2023-01-12T06:07:56.254Z,0
2023-01-12T06:08:56.247Z,0
2023-01-12T06:09:56.247Z,0
2023-01-12T06:10:56.245Z,0
2023-01-12T06:11:56.244Z,0
2023-01-12T06:12:56.268Z,0
2023-01-12T06:13:56.260Z,0
2023-01-12T06:14:56.243Z,0
2023-01-12T06:15:56.269Z,0
2023-01-12T06:16:56.249Z,0
2023-01-12T06:17:56.259Z,0
2023-01-12T06:18:56.240Z,0
2023-01-12T06:19:56.241Z,0
2023-01-12T06:20:56.242Z,0
2023-01-12T06:21:56.239Z,0
2023-01-12T06:22:56.258Z,0
2023-01-12T06:23:56.247Z,0
2023-01-12T06:24:56.252Z,0
2023-01-12T06:25:56.257Z,0
2023-01-12T06:26:56.253Z,0
2023-01-12T06:27:56.274Z,0
2023-01-12T06:28:56.240Z,0
2023-01-12T06:29:56.238Z,0
2023-01-12T06:30:56.259Z,0
2023-01-12T06:31:56.260Z,0
2023-01-12T06:32:56.254Z,0
2023-01-12T06:33:56.241Z,0
2023-01-12T06:34:57.957Z,0
2023-01-12T06:35:56.239Z,0
2023-01-12T06:36:56.240Z,0
2023-01-12T06:37:56.273Z,0
2023-01-12T06:38:56.259Z,0
2023-01-12T06:39:56.236Z,0
2023-01-12T06:40:56.249Z,0
2023-01-12T06:41:56.243Z,0
2023-01-12T06:42:56.257Z,0
2023-01-12T06:43:56.239Z,0
2023-01-12T06:44:56.253Z,0
2023-01-12T06:45:56.248Z,0.01
2023-01-12T06:46:56.318Z,0.01
2023-01-12T06:47:56.255Z,0.01
2023-01-12T06:48:56.243Z,0.01
2023-01-12T06:49:56.242Z,0.01
2023-01-12T06:50:56.239Z,0.01
2023-01-12T06:51:56.237Z,0.02
2023-01-12T06:52:56.365Z,0.02
2023-01-12T06:53:56.246Z,0.02
2023-01-12T06:54:56.240Z,0.02
2023-01-12T06:55:56.262Z,0.02
2023-01-12T06:56:56.247Z,0.03
2023-01-12T06:57:56.261Z,0.03
2023-01-12T06:58:56.317Z,0.03
2023-01-12T06:59:56.236Z,0.03
2023-01-12T07:00:56.277Z,0.03
2023-01-12T07:01:56.302Z,0.05
2023-01-12T07:02:56.259Z,0.06
2023-01-12T07:03:56.251Z,0.06
2023-01-12T07:04:56.245Z,0.07
2023-01-12T07:05:56.244Z,0.07
2023-01-12T07:06:56.247Z,0.08
2023-01-12T07:07:56.258Z,0.08
2023-01-12T07:08:56.241Z,0.08
2023-01-12T07:09:56.246Z,0.09
2023-01-12T07:10:56.244Z,0.1
2023-01-12T07:11:56.251Z,0.1
2023-01-12T07:12:56.261Z,0.1
2023-01-12T07:13:56.240Z,0.11
2023-01-12T07:14:56.269Z,0.11
2023-01-12T07:15:56.323Z,0.11
2023-01-12T07:16:56.246Z,0.11
2023-01-12T07:17:56.267Z,0.12
2023-01-12T07:18:56.246Z,0.13
2023-01-12T07:19:56.247Z,0.14
2023-01-12T07:20:56.290Z,0.15
2023-01-12T07:21:56.252Z,0.15
2023-01-12T07:22:56.265Z,0.16
2023-01-12T07:23:56.256Z,0.17
2023-01-12T07:24:57.792Z,0.17
2023-01-12T07:25:56.244Z,0.18
2023-01-12T07:26:56.248Z,0.2
2023-01-12T07:27:56.283Z,0.21
2023-01-12T07:28:56.281Z,0.22
2023-01-12T07:29:56.252Z,0.22
2023-01-12T07:30:56.354Z,0.23
2023-01-12T07:31:56.251Z,0.24
2023-01-12T07:32:56.307Z,0.25
2023-01-12T07:33:56.262Z,0.25
2023-01-12T07:34:56.241Z,0.26
2023-01-12T07:35:56.344Z,0.26
2023-01-12T07:36:56.261Z,0.28
2023-01-12T07:37:56.265Z,0.28
2023-01-12T07:38:56.265Z,0.28
2023-01-12T07:39:58.985Z,0.29
2023-01-12T07:40:56.239Z,0.3
2023-01-12T07:41:56.354Z,0.32
2023-01-12T07:42:56.255Z,0.32
2023-01-12T07:43:56.238Z,0.33
2023-01-12T07:44:56.291Z,0.34
2023-01-12T07:45:56.243Z,0.34
2023-01-12T07:46:56.238Z,0.36
2023-01-12T07:47:56.257Z,0.37
2023-01-12T07:48:56.242Z,0.41
2023-01-12T07:49:56.251Z,0.47
2023-01-12T07:50:56.244Z,0.52
2023-01-12T07:51:56.242Z,0.53
2023-01-12T07:52:56.258Z,0.52
2023-01-12T07:53:56.243Z,0.52
2023-01-12T07:54:56.236Z,0.6
2023-01-12T07:55:56.263Z,0.68
2023-01-12T07:56:56.243Z,0.88
2023-01-12T07:57:56.255Z,1.1
2023-01-12T07:58:56.240Z,1.32
2023-01-12T07:59:56.254Z,1.48
2023-01-12T08:00:56.287Z,1.59
2023-01-12T08:01:56.278Z,1.6
2023-01-12T08:02:56.261Z,1.63
2023-01-12T08:03:56.244Z,1.56
2023-01-12T08:04:56.255Z,1.66
2023-01-12T08:05:56.341Z,1.75
2023-01-12T08:06:56.243Z,1.74
2023-01-12T08:07:56.266Z,1.9
2023-01-12T08:08:56.243Z,1.9
2023-01-12T08:09:56.258Z,1.86
2023-01-12T08:10:56.239Z,2.15
2023-01-12T08:11:56.242Z,2.41
2023-01-12T08:12:56.265Z,2.44
2023-01-12T08:13:56.243Z,2.31
2023-01-12T08:14:56.250Z,2.26
2023-01-12T08:15:56.295Z,2.49
2023-01-12T08:16:56.260Z,2.76
2023-01-12T08:17:56.261Z,2.16
2023-01-12T08:18:56.284Z,2.21
2023-01-12T08:19:56.253Z,2.34
2023-01-12T08:20:56.250Z,2.46
2023-01-12T08:21:56.259Z,2.86
2023-01-12T08:22:56.262Z,2.56
2023-01-12T08:23:56.253Z,2.49
2023-01-12T08:24:56.296Z,1.48
2023-01-12T08:25:56.258Z,2.78
2023-01-12T08:26:56.248Z,3.15
2023-01-12T08:27:56.298Z,1.12
2023-01-12T08:28:56.246Z,2.99
2023-01-12T08:29:56.246Z,1.19
2023-01-12T08:30:56.255Z,1.11
2023-01-12T08:31:56.247Z,2.12
2023-01-12T08:32:56.265Z,2.24
2023-01-12T08:33:56.247Z,1.68
2023-01-12T08:34:56.881Z,2.32
2023-01-12T08:35:56.240Z,1.22
2023-01-12T08:36:56.253Z,1.55
2023-01-12T08:37:56.272Z,2.54
2023-01-12T08:38:56.241Z,2.99
2023-01-12T08:39:56.257Z,1.3
2023-01-12T08:40:56.256Z,1.39
2023-01-12T08:41:56.261Z,1.43
2023-01-12T08:42:56.263Z,1.43
2023-01-12T08:43:56.237Z,3.13
2023-01-12T08:44:56.253Z,1.37
2023-01-12T08:45:56.243Z,2.26
2023-01-12T08:46:56.268Z,2.96
2023-01-12T08:47:56.259Z,2.98
2023-01-12T08:48:56.234Z,2.94
2023-01-12T08:49:56.242Z,2.32
2023-01-12T08:50:56.255Z,2.73
2023-01-12T08:51:56.236Z,2.31
2023-01-12T08:52:56.257Z,2.65
2023-01-12T08:53:56.252Z,2.96
2023-01-12T08:54:56.253Z,3.19
2023-01-12T08:55:56.239Z,2.63
2023-01-12T08:56:56.335Z,2.09
2023-01-12T08:57:56.270Z,2.02
2023-01-12T08:58:56.282Z,2.36
2023-01-12T08:59:56.233Z,2.45
2023-01-12T09:00:56.523Z,2.56
2023-01-12T09:01:56.340Z,2.67
2023-01-12T09:02:56.253Z,2.91
2023-01-12T09:03:56.238Z,2.83
2023-01-12T09:04:56.243Z,2.45
2023-01-12T09:05:56.247Z,2.22
2023-01-12T09:06:56.248Z,2.03
2023-01-12T09:07:56.317Z,1.91
2023-01-12T09:08:56.245Z,1.91
2023-01-12T09:09:56.245Z,2.06
2023-01-12T09:10:56.244Z,2.19
2023-01-12T09:11:56.239Z,1.99
2023-01-12T09:12:56.278Z,1.71
2023-01-12T09:13:56.295Z,1.62
2023-01-12T09:14:56.240Z,1.59
2023-01-12T09:16:11.306Z,1.5
2023-01-12T09:16:56.288Z,1.41
2023-01-12T09:17:56.287Z,1.43
2023-01-12T09:18:56.254Z,1.49
2023-01-12T09:19:56.362Z,1.64
2023-01-12T09:20:56.249Z,1.84
2023-01-12T09:21:56.247Z,1.61
2023-01-12T09:22:56.267Z,1.65
2023-01-12T09:23:56.256Z,1.84
2023-01-12T09:24:56.245Z,2.15
2023-01-12T09:25:56.256Z,3.02
2023-01-12T09:26:56.252Z,3.89
2023-01-12T09:27:56.265Z,3.29
2023-01-12T09:28:56.234Z,3.94
2023-01-12T09:29:56.244Z,4.33
2023-01-12T09:30:56.249Z,4.03
2023-01-12T09:31:56.314Z,3.38
2023-01-12T09:32:56.262Z,3.04
2023-01-12T09:33:56.250Z,2.71
2023-01-12T09:34:56.257Z,2.46
2023-01-12T09:35:56.247Z,2.23
2023-01-12T09:36:56.235Z,2.03
2023-01-12T09:37:56.258Z,2.18
2023-01-12T09:38:56.321Z,2.29
2023-01-12T09:39:56.239Z,2.33
2023-01-12T09:40:56.243Z,2.85
2023-01-12T09:41:56.249Z,2.99
2023-01-12T09:42:56.268Z,3.05
2023-01-12T09:43:56.251Z,3.03
2023-01-12T09:44:56.237Z,2.64
2023-01-12T09:45:56.383Z,2.54
2023-01-12T09:46:56.260Z,2.6
2023-01-12T09:47:56.264Z,2.97
2023-01-12T09:48:56.242Z,4.34
2023-01-12T09:50:08.038Z,4.45
2023-01-12T09:50:56.244Z,4.02
2023-01-12T09:51:56.257Z,3.92
2023-01-12T09:52:56.260Z,2.69
2023-01-12T09:53:56.245Z,2.69
2023-01-12T09:54:56.244Z,2.25
2023-01-12T09:55:56.236Z,1.97
2023-01-12T09:56:56.241Z,1.91
2023-01-12T09:57:56.258Z,1.97
2023-01-12T09:58:56.251Z,1.87
2023-01-12T09:59:56.241Z,1.73
2023-01-12T10:00:56.270Z,1.65
2023-01-12T10:01:56.390Z,1.54
2023-01-12T10:02:56.312Z,1.48
2023-01-12T10:03:56.270Z,1.48
2023-01-12T10:04:56.237Z,1.46
2023-01-12T10:05:56.238Z,1.4
2023-01-12T10:06:56.247Z,1.36
2023-01-12T10:07:56.253Z,1.31
2023-01-12T10:08:56.245Z,1.31
2023-01-12T10:09:56.241Z,1.24
2023-01-12T10:10:56.241Z,1.19
2023-01-12T10:11:56.238Z,1.18
2023-01-12T10:12:58.030Z,1.18
2023-01-12T10:13:56.238Z,1.18
2023-01-12T10:14:56.236Z,1.2
2023-01-12T10:15:56.240Z,1.24
2023-01-12T10:16:56.252Z,1.22
2023-01-12T10:17:56.258Z,1.2
2023-01-12T10:18:56.247Z,1.18
2023-01-12T10:19:56.239Z,1.18
2023-01-12T10:20:56.247Z,1.19
2023-01-12T10:21:56.249Z,1.24
2023-01-12T10:22:56.261Z,1.26
2023-01-12T10:23:56.263Z,1.23
2023-01-12T10:24:56.245Z,1.25
2023-01-12T10:25:56.250Z,1.28
2023-01-12T10:26:56.238Z,1.31
2023-01-12T10:27:56.266Z,1.31
2023-01-12T10:28:56.260Z,1.29
2023-01-12T10:29:56.249Z,1.26
2023-01-12T10:30:56.730Z,1.22
2023-01-12T10:31:56.299Z,1.19
2023-01-12T10:32:56.258Z,1.17
2023-01-12T10:33:56.273Z,1.15
2023-01-12T10:34:56.251Z,1.14
2023-01-12T10:35:56.261Z,1.13
2023-01-12T10:36:56.251Z,1.13
2023-01-12T10:37:56.276Z,1.12
2023-01-12T10:38:56.242Z,1.13
2023-01-12T10:39:56.351Z,1.14
2023-01-12T10:40:56.241Z,1.16
2023-01-12T10:41:56.244Z,1.18
2023-01-12T10:42:56.255Z,1.2
2023-01-12T10:43:56.244Z,1.22
2023-01-12T10:44:56.248Z,1.22
2023-01-12T10:45:56.290Z,1.19
2023-01-12T10:46:56.251Z,1.16
2023-01-12T10:47:56.266Z,1.12
2023-01-12T10:48:56.549Z,1.1
2023-01-12T10:49:56.254Z,1.06
2023-01-12T10:50:56.252Z,1.02
2023-01-12T10:51:56.313Z,0.99
2023-01-12T10:52:56.263Z,0.97
2023-01-12T10:53:56.255Z,0.96
2023-01-12T10:54:58.807Z,0.97
2023-01-12T10:55:56.240Z,0.96
2023-01-12T10:56:56.243Z,0.97
2023-01-12T10:57:56.268Z,0.94
2023-01-12T10:58:56.267Z,0.93
2023-01-12T10:59:56.250Z,0.92
2023-01-12T11:00:56.446Z,0.93
2023-01-12T11:01:56.485Z,0.95
2023-01-12T11:02:56.290Z,0.97
2023-01-12T11:03:56.239Z,0.98
2023-01-12T11:04:56.254Z,0.98
2023-01-12T11:05:56.242Z,0.99
2023-01-12T11:06:56.256Z,1.01
2023-01-12T11:07:56.263Z,1.01
2023-01-12T11:08:56.236Z,1.01
2023-01-12T11:09:56.242Z,1.01
2023-01-12T11:10:56.245Z,1
2023-01-12T11:11:56.239Z,0.96
2023-01-12T11:12:56.271Z,0.92
2023-01-12T11:13:56.243Z,0.88
2023-01-12T11:14:56.244Z,0.85
2023-01-12T11:15:56.235Z,0.82
2023-01-12T11:16:56.339Z,0.8
2023-01-12T11:17:56.266Z,0.8
2023-01-12T11:18:56.242Z,0.79
2023-01-12T11:19:56.287Z,0.79
2023-01-12T11:20:56.246Z,0.79
2023-01-12T11:21:56.263Z,0.77
2023-01-12T11:22:56.261Z,0.72
2023-01-12T11:23:56.240Z,0.67
2023-01-12T11:24:56.242Z,0.72
2023-01-12T11:25:56.242Z,0.7
2023-01-12T11:26:56.239Z,0.7
2023-01-12T11:27:56.259Z,0.71
2023-01-12T11:28:56.267Z,0.71
2023-01-12T11:29:56.250Z,0.77
2023-01-12T11:30:56.293Z,0.79
2023-01-12T11:31:56.240Z,0.81
2023-01-12T11:32:56.257Z,0.83
2023-01-12T11:33:56.254Z,0.86
2023-01-12T11:34:56.240Z,0.92
2023-01-12T11:35:56.243Z,0.96
2023-01-12T11:36:56.248Z,0.99
2023-01-12T11:37:56.264Z,0.99
2023-01-12T11:38:56.245Z,0.98
2023-01-12T11:39:56.244Z,1.05
2023-01-12T11:40:56.262Z,1.09
2023-01-12T11:41:56.246Z,1.06
2023-01-12T11:42:56.259Z,1.01
2023-01-12T11:43:56.265Z,0.92
2023-01-12T11:44:56.245Z,0.96
2023-01-12T11:45:56.294Z,0.89
2023-01-12T11:46:56.254Z,0.88
2023-01-12T11:47:56.265Z,0.9
2023-01-12T11:48:56.238Z,0.94
2023-01-12T11:49:56.256Z,0.91
2023-01-12T11:50:56.252Z,0.88
2023-01-12T11:51:56.245Z,0.87
2023-01-12T11:52:56.275Z,0.85
2023-01-12T11:53:56.253Z,0.84
2023-01-12T11:54:56.252Z,0.82
2023-01-12T11:55:56.292Z,0.81
2023-01-12T11:56:56.249Z,0.78
2023-01-12T11:57:56.264Z,0.76
2023-01-12T11:58:56.252Z,0.73
2023-01-12T11:59:56.375Z,0.71
2023-01-12T12:00:56.296Z,0.7
2023-01-12T12:01:56.248Z,0.67
2023-01-12T12:02:56.288Z,0.67
2023-01-12T12:03:56.340Z,0.66
2023-01-12T12:04:56.270Z,0.66
2023-01-12T12:05:56.349Z,0.65
2023-01-12T12:06:56.311Z,0.63
2023-01-12T12:07:56.265Z,0.6
2023-01-12T12:08:56.281Z,0.6
2023-01-12T12:09:56.252Z,0.54
2023-01-12T12:10:56.263Z,0.56
2023-01-12T12:11:56.294Z,0.58
2023-01-12T12:12:56.263Z,0.51
2023-01-12T12:13:56.252Z,0.5
2023-01-12T12:14:56.245Z,0.45
2023-01-12T12:15:56.245Z,0.51
2023-01-12T12:16:56.240Z,0.53
2023-01-12T12:17:56.255Z,0.46
2023-01-12T12:18:56.250Z,0.53
2023-01-12T12:19:56.247Z,0.55
2023-01-12T12:20:56.238Z,0.55
2023-01-12T12:21:56.250Z,0.53
2023-01-12T12:22:56.266Z,0.51
2023-01-12T12:23:56.239Z,0.53
2023-01-12T12:24:56.259Z,0.56
2023-01-12T12:25:56.241Z,0.55
2023-01-12T12:26:56.248Z,0.51
2023-01-12T12:27:56.259Z,0.49
2023-01-12T12:28:56.238Z,0.5
2023-01-12T12:29:56.255Z,0.49
2023-01-12T12:30:56.274Z,0.46
2023-01-12T12:31:56.243Z,0.45
2023-01-12T12:32:56.369Z,0.44
2023-01-12T12:33:56.258Z,0.44
2023-01-12T12:34:56.250Z,0.51
2023-01-12T12:35:56.254Z,0.6
2023-01-12T12:36:56.241Z,0.61
2023-01-12T12:37:56.274Z,0.55
2023-01-12T12:38:56.244Z,0.57
2023-01-12T12:39:56.242Z,0.65
2023-01-12T12:40:56.256Z,0.63
2023-01-12T12:41:56.257Z,0.64
2023-01-12T12:42:56.260Z,0.62
2023-01-12T12:43:56.243Z,0.61
2023-01-12T12:44:56.252Z,0.61
2023-01-12T12:45:56.327Z,0.68
2023-01-12T12:46:56.251Z,0.85
2023-01-12T12:47:56.261Z,0.71
2023-01-12T12:48:56.253Z,0.72
2023-01-12T12:49:56.246Z,0.72
2023-01-12T12:50:56.251Z,0.68
2023-01-12T12:51:56.244Z,0.77
2023-01-12T12:52:56.262Z,0.68
2023-01-12T12:53:56.255Z,0.54
2023-01-12T12:54:56.244Z,0.43
2023-01-12T12:55:56.264Z,0.51
2023-01-12T12:56:56.248Z,0.56
2023-01-12T12:57:56.257Z,0.65
2023-01-12T12:58:56.252Z,0.65
2023-01-12T12:59:56.317Z,0.65
2023-01-12T13:00:56.298Z,0.67
2023-01-12T13:01:56.246Z,0.69
2023-01-12T13:02:56.334Z,0.7
2023-01-12T13:03:56.269Z,0.68
2023-01-12T13:04:56.258Z,0.7
2023-01-12T13:05:56.245Z,0.65
2023-01-12T13:06:56.251Z,0.71
2023-01-12T13:07:56.268Z,0.67
2023-01-12T13:08:56.244Z,0.67
2023-01-12T13:09:56.249Z,0.66
2023-01-12T13:10:56.267Z,0.67
2023-01-12T13:11:56.245Z,0.67
2023-01-12T13:12:56.296Z,0.64
2023-01-12T13:13:56.246Z,0.59
2023-01-12T13:14:56.254Z,0.62
2023-01-12T13:15:56.283Z,0.63
2023-01-12T13:16:56.254Z,0.66
2023-01-12T13:17:56.266Z,0.68
2023-01-12T13:18:56.248Z,0.69
2023-01-12T13:20:00.816Z,0.69
2023-01-12T13:20:56.243Z,0.66
2023-01-12T13:21:56.359Z,0.62
2023-01-12T13:22:56.261Z,0.59
2023-01-12T13:23:56.278Z,0.53
2023-01-12T13:24:56.247Z,0.48
2023-01-12T13:25:56.242Z,0.43
2023-01-12T13:26:56.238Z,0.39
2023-01-12T13:27:56.277Z,0.36
2023-01-12T13:28:56.249Z,0.36
2023-01-12T13:29:56.242Z,0.37
2023-01-12T13:30:56.274Z,0.38
2023-01-12T13:31:56.247Z,0.38
2023-01-12T13:32:56.259Z,0.39
2023-01-12T13:33:56.245Z,0.42
2023-01-12T13:34:56.239Z,0.41
2023-01-12T13:35:56.240Z,0.42
2023-01-12T13:36:56.249Z,0.44
2023-01-12T13:37:56.258Z,0.46
2023-01-12T13:38:56.259Z,0.48
2023-01-12T13:39:56.237Z,0.5
2023-01-12T13:40:56.492Z,0.49
2023-01-12T13:41:56.270Z,0.47
2023-01-12T13:42:56.254Z,0.47
2023-01-12T13:43:56.250Z,0.48
2023-01-12T13:44:56.246Z,0.48
2023-01-12T13:45:56.262Z,0.47
2023-01-12T13:46:56.250Z,0.46
2023-01-12T13:47:56.267Z,0.46
2023-01-12T13:48:56.250Z,0.46
2023-01-12T13:49:56.238Z,0.43
2023-01-12T13:50:56.243Z,0.4
2023-01-12T13:51:56.260Z,0.39
2023-01-12T13:52:56.256Z,0.38
2023-01-12T13:53:56.244Z,0.36
2023-01-12T13:54:56.254Z,0.36
2023-01-12T13:55:56.258Z,0.31
2023-01-12T13:56:56.241Z,0.3
2023-01-12T13:57:56.261Z,0.31
2023-01-12T13:58:56.249Z,0.31
2023-01-12T13:59:56.295Z,0.32
2023-01-12T14:00:56.341Z,0.33